createdAt,value
2022-08-21T00:00:11.727Z,0.00
2022-08-21T00:00:44.250Z,0.00
2022-08-21T00:01:12.993Z,0.00
2022-08-21T00:01:43.529Z,0.00
2022-08-21T00:02:14.170Z,0.00
2022-08-21T00:02:44.721Z,0.00
2022-08-21T00:03:15.290Z,0.00
2022-08-21T00:03:45.886Z,0.00
2022-08-21T00:04:22.236Z,0.00
2022-08-21T00:04:52.459Z,0.00
2022-08-21T00:05:18.090Z,0.00
2022-08-21T00:05:48.624Z,0.00
2022-08-21T00:06:19.200Z,0.00
2022-08-21T00:06:49.772Z,0.00
2022-08-21T00:07:20.302Z,0.00
2022-08-21T00:07:50.835Z,0.00
2022-08-21T00:08:21.395Z,0.00
2022-08-21T00:08:51.949Z,0.00
2022-08-21T00:09:22.518Z,0.00
2022-08-21T00:09:53.091Z,0.00
2022-08-21T00:10:23.658Z,0.00
2022-08-21T00:10:54.206Z,0.00
2022-08-21T00:11:24.797Z,0.00
2022-08-21T00:11:55.331Z,0.00
2022-08-21T00:12:25.904Z,0.00
2022-08-21T00:12:56.593Z,0.00
2022-08-21T00:13:27.222Z,0.00
2022-08-21T00:13:57.776Z,0.00
2022-08-21T00:14:28.330Z,0.00
2022-08-21T00:14:58.956Z,0.00
2022-08-21T00:15:29.964Z,0.00
2022-08-21T00:16:00.497Z,0.00
2022-08-21T00:16:31.074Z,0.00
2022-08-21T00:17:01.617Z,0.00
2022-08-21T00:17:32.190Z,0.00
2022-08-21T00:18:02.757Z,0.00
2022-08-21T00:18:33.321Z,0.00
2022-08-21T00:19:03.845Z,0.00
2022-08-21T00:19:34.372Z,0.00
2022-08-21T00:20:04.913Z,0.00
2022-08-21T00:20:35.462Z,0.00
2022-08-21T00:21:06.003Z,0.00
2022-08-21T00:21:36.566Z,0.00
2022-08-21T00:22:07.093Z,0.00
2022-08-21T00:22:37.633Z,0.00
2022-08-21T00:23:08.167Z,0.00
2022-08-21T00:23:38.719Z,0.00
2022-08-21T00:24:09.248Z,0.00
2022-08-21T00:24:39.824Z,0.00
2022-08-21T00:25:10.391Z,0.00
2022-08-21T00:25:40.976Z,0.00
2022-08-21T00:26:11.512Z,0.00
2022-08-21T00:26:42.065Z,0.00
2022-08-21T00:27:12.608Z,0.00
2022-08-21T00:27:43.184Z,0.00
2022-08-21T00:28:13.718Z,0.00
2022-08-21T00:28:44.282Z,0.00
2022-08-21T00:29:14.855Z,0.00
2022-08-21T00:29:45.420Z,0.00
2022-08-21T00:30:20.399Z,0.00
2022-08-21T00:30:46.738Z,0.00
2022-08-21T00:31:17.295Z,0.00
2022-08-21T00:31:47.879Z,0.00
2022-08-21T00:32:18.473Z,0.00
2022-08-21T00:32:49.049Z,0.00
2022-08-21T00:33:19.610Z,0.00
2022-08-21T00:33:50.178Z,0.00
2022-08-21T00:34:20.745Z,0.00
2022-08-21T00:34:51.316Z,0.00
2022-08-21T00:35:21.876Z,0.00
2022-08-21T00:35:52.445Z,0.00
2022-08-21T00:36:22.993Z,0.00
2022-08-21T00:36:53.610Z,0.00
2022-08-21T00:37:24.183Z,0.00
2022-08-21T00:37:54.761Z,0.00
2022-08-21T00:38:25.290Z,0.00
2022-08-21T00:38:55.854Z,0.00
2022-08-21T00:39:26.431Z,0.00
2022-08-21T00:39:57.110Z,0.00
2022-08-21T00:40:27.680Z,0.00
2022-08-21T00:40:58.241Z,0.00
2022-08-21T00:41:37.556Z,0.00
2022-08-21T00:42:00.029Z,0.00
2022-08-21T00:42:30.604Z,0.00
2022-08-21T00:43:01.283Z,0.00
2022-08-21T00:43:31.962Z,0.00
2022-08-21T00:44:02.502Z,0.00
2022-08-21T00:44:33.106Z,0.00
2022-08-21T00:45:03.644Z,0.00
2022-08-21T00:45:34.183Z,0.00
2022-08-21T00:46:04.739Z,0.00
2022-08-21T00:46:35.285Z,0.00
2022-08-21T00:47:05.874Z,0.00
2022-08-21T00:47:36.399Z,0.00
2022-08-21T00:48:06.963Z,0.00
2022-08-21T00:48:37.487Z,0.00
2022-08-21T00:49:08.020Z,0.00
2022-08-21T00:49:38.597Z,0.00
2022-08-21T00:50:09.159Z,0.00
2022-08-21T00:50:39.925Z,0.00
2022-08-21T00:51:10.472Z,0.00
2022-08-21T00:51:41.044Z,0.00
2022-08-21T00:52:11.583Z,0.00
2022-08-21T00:52:42.143Z,0.00
2022-08-21T00:53:12.713Z,0.00
2022-08-21T00:53:43.296Z,0.00
2022-08-21T00:54:18.240Z,0.00
2022-08-21T00:54:46.378Z,0.00
2022-08-21T00:55:15.612Z,0.00
2022-08-21T00:55:46.148Z,0.00
2022-08-21T00:56:16.784Z,0.00
2022-08-21T00:56:47.466Z,0.00
2022-08-21T00:57:18.388Z,0.00
2022-08-21T00:57:50.340Z,0.00
2022-08-21T00:58:19.904Z,0.00
2022-08-21T00:58:54.830Z,0.00
2022-08-21T00:59:21.445Z,0.00
2022-08-21T00:59:51.979Z,0.00
2022-08-21T01:00:22.556Z,0.00
2022-08-21T01:00:53.206Z,0.00
2022-08-21T01:01:23.799Z,0.00
2022-08-21T01:01:54.427Z,0.00
2022-08-21T01:02:24.986Z,0.00
2022-08-21T01:02:55.530Z,0.00
2022-08-21T01:03:26.087Z,0.00
2022-08-21T01:03:56.680Z,0.00
2022-08-21T01:04:27.215Z,0.00
2022-08-21T01:04:57.786Z,0.00
2022-08-21T01:05:28.328Z,0.00
2022-08-21T01:05:58.866Z,0.00
2022-08-21T01:06:29.393Z,0.00
2022-08-21T01:06:59.957Z,0.00
2022-08-21T01:07:30.503Z,0.00
2022-08-21T01:08:01.059Z,0.00
2022-08-21T01:08:31.581Z,0.00
2022-08-21T01:09:02.126Z,0.00
2022-08-21T01:09:32.650Z,0.00
2022-08-21T01:10:03.184Z,0.00
2022-08-21T01:10:33.758Z,0.00
2022-08-21T01:11:04.306Z,0.00
2022-08-21T01:11:34.989Z,0.00
2022-08-21T01:12:05.512Z,0.00
2022-08-21T01:12:36.070Z,0.00
2022-08-21T01:13:06.660Z,0.00
2022-08-21T01:13:37.246Z,0.00
2022-08-21T01:14:07.768Z,0.00
2022-08-21T01:14:38.295Z,0.00
2022-08-21T01:15:08.864Z,0.00
2022-08-21T01:15:39.414Z,0.00
2022-08-21T01:16:09.971Z,0.00
2022-08-21T01:16:40.550Z,0.00
2022-08-21T01:17:11.101Z,0.00
2022-08-21T01:17:41.646Z,0.00
2022-08-21T01:18:12.192Z,0.00
2022-08-21T01:18:42.750Z,0.00
2022-08-21T01:19:13.278Z,0.00
2022-08-21T01:19:43.841Z,0.00
2022-08-21T01:20:14.386Z,0.00
2022-08-21T01:20:44.942Z,0.00
2022-08-21T01:21:15.720Z,0.00
2022-08-21T01:21:46.286Z,0.00
2022-08-21T01:22:16.838Z,0.00
2022-08-21T01:22:47.386Z,0.00
2022-08-21T01:23:17.966Z,0.00
2022-08-21T01:23:48.549Z,0.00
2022-08-21T01:24:19.115Z,0.00
2022-08-21T01:24:49.649Z,0.00
2022-08-21T01:25:20.187Z,0.00
2022-08-21T01:25:50.750Z,0.00
2022-08-21T01:26:21.289Z,0.00
2022-08-21T01:26:51.856Z,0.00
2022-08-21T01:27:22.399Z,0.00
2022-08-21T01:27:52.977Z,0.00
2022-08-21T01:28:23.517Z,0.00
2022-08-21T01:28:54.047Z,0.00
2022-08-21T01:29:24.617Z,0.00
2022-08-21T01:29:55.182Z,0.00
2022-08-21T01:30:25.742Z,0.00
2022-08-21T01:30:56.298Z,0.00
2022-08-21T01:31:26.826Z,0.00
2022-08-21T01:31:57.377Z,0.00
2022-08-21T01:32:27.897Z,0.00
2022-08-21T01:32:58.676Z,0.00
2022-08-21T01:33:29.414Z,0.00
2022-08-21T01:33:59.979Z,0.00
2022-08-21T01:34:30.536Z,0.00
2022-08-21T01:35:01.059Z,0.00
2022-08-21T01:35:31.583Z,0.00
2022-08-21T01:36:02.138Z,0.00
2022-08-21T01:36:32.689Z,0.00
2022-08-21T01:37:03.252Z,0.00
2022-08-21T01:37:33.799Z,0.00
2022-08-21T01:38:04.328Z,0.00
2022-08-21T01:38:34.849Z,0.00
2022-08-21T01:39:05.388Z,0.00
2022-08-21T01:39:36.020Z,0.00
2022-08-21T01:40:06.674Z,0.00
2022-08-21T01:40:37.246Z,0.00
2022-08-21T01:41:07.801Z,0.00
2022-08-21T01:41:38.382Z,0.00
2022-08-21T01:42:08.938Z,0.00
2022-08-21T01:42:39.498Z,0.00
2022-08-21T01:43:10.070Z,0.00
2022-08-21T01:43:40.636Z,0.00
2022-08-21T01:44:11.164Z,0.00
2022-08-21T01:44:41.697Z,0.00
2022-08-21T01:45:12.235Z,0.00
2022-08-21T01:45:42.806Z,0.00
2022-08-21T01:46:13.369Z,0.00
2022-08-21T01:46:43.934Z,0.00
2022-08-21T01:47:14.475Z,0.00
2022-08-21T01:47:45.115Z,0.00
2022-08-21T01:48:15.661Z,0.00
2022-08-21T01:48:46.189Z,0.00
2022-08-21T01:49:16.726Z,0.00
2022-08-21T01:49:47.340Z,0.00
2022-08-21T01:50:17.876Z,0.00
2022-08-21T01:50:48.405Z,0.00
2022-08-21T01:51:19.212Z,0.00
2022-08-21T01:51:49.733Z,0.00
2022-08-21T01:52:20.277Z,0.00
2022-08-21T01:52:50.921Z,0.00
2022-08-21T01:53:21.493Z,0.00
2022-08-21T01:53:52.267Z,0.00
2022-08-21T01:54:22.823Z,0.00
2022-08-21T01:54:55.451Z,0.00
2022-08-21T01:55:24.245Z,0.00
2022-08-21T01:55:54.800Z,0.00
2022-08-21T01:56:25.327Z,0.00
2022-08-21T01:56:55.893Z,0.00
2022-08-21T01:57:26.560Z,0.00
2022-08-21T01:57:57.120Z,0.00
2022-08-21T01:58:27.665Z,0.00
2022-08-21T01:58:58.191Z,0.00
2022-08-21T01:59:28.756Z,0.00
2022-08-21T01:59:59.328Z,0.00
2022-08-21T02:00:29.868Z,0.00
2022-08-21T02:01:00.468Z,0.00
2022-08-21T02:01:31.009Z,0.00
2022-08-21T02:02:01.537Z,0.00
2022-08-21T02:02:32.112Z,0.00
2022-08-21T02:03:02.658Z,0.00
2022-08-21T02:03:35.557Z,0.00
2022-08-21T02:04:04.158Z,0.00
2022-08-21T02:04:34.703Z,0.00
2022-08-21T02:05:05.254Z,0.00
2022-08-21T02:05:35.809Z,0.00
2022-08-21T02:06:06.378Z,0.00
2022-08-21T02:06:36.930Z,0.00
2022-08-21T02:07:08.579Z,0.00
2022-08-21T02:07:38.313Z,0.00
2022-08-21T02:08:08.838Z,0.00
2022-08-21T02:08:39.413Z,0.00
2022-08-21T02:09:09.983Z,0.00
2022-08-21T02:09:40.569Z,0.00
2022-08-21T02:10:11.092Z,0.00
2022-08-21T02:10:41.666Z,0.00
2022-08-21T02:11:12.442Z,0.00
2022-08-21T02:11:42.976Z,0.00
2022-08-21T02:12:13.518Z,0.00
2022-08-21T02:12:44.075Z,0.00
2022-08-21T02:13:14.645Z,0.00
2022-08-21T02:13:45.202Z,0.00
2022-08-21T02:14:15.758Z,0.00
2022-08-21T02:14:46.530Z,0.00
2022-08-21T02:15:17.085Z,0.00
2022-08-21T02:15:47.626Z,0.00
2022-08-21T02:16:19.311Z,0.00
2022-08-21T02:16:49.113Z,0.00
2022-08-21T02:17:19.819Z,0.00
2022-08-21T02:17:50.370Z,0.00
2022-08-21T02:18:20.912Z,0.00
2022-08-21T02:18:51.436Z,0.00
2022-08-21T02:19:22.009Z,0.00
2022-08-21T02:19:52.591Z,0.00
2022-08-21T02:20:23.165Z,0.00
2022-08-21T02:20:55.913Z,0.00
2022-08-21T02:21:24.227Z,0.00
2022-08-21T02:21:54.769Z,0.00
2022-08-21T02:22:25.295Z,0.00
2022-08-21T02:22:55.850Z,0.00
2022-08-21T02:23:27.012Z,0.00
2022-08-21T02:23:57.054Z,0.00
2022-08-21T02:24:27.622Z,0.00
2022-08-21T02:24:58.185Z,0.00
2022-08-21T02:25:28.733Z,0.00
2022-08-21T02:25:59.276Z,0.00
2022-08-21T02:26:29.846Z,0.00
2022-08-21T02:27:00.412Z,0.00
2022-08-21T02:27:30.995Z,0.00
2022-08-21T02:28:01.951Z,0.00
2022-08-21T02:28:32.485Z,0.00
2022-08-21T02:29:03.009Z,0.00
2022-08-21T02:29:33.535Z,0.00
2022-08-21T02:30:04.106Z,0.00
2022-08-21T02:30:34.683Z,0.00
2022-08-21T02:31:05.258Z,0.00
2022-08-21T02:31:35.829Z,0.00
2022-08-21T02:32:06.414Z,0.00
2022-08-21T02:32:36.969Z,0.00
2022-08-21T02:33:07.574Z,0.00
2022-08-21T02:33:38.095Z,0.00
2022-08-21T02:34:08.674Z,0.00
2022-08-21T02:34:39.218Z,0.00
2022-08-21T02:35:09.791Z,0.00
2022-08-21T02:35:40.363Z,0.00
2022-08-21T02:36:10.930Z,0.00
2022-08-21T02:36:41.484Z,0.00
2022-08-21T02:37:12.077Z,0.00
2022-08-21T02:37:42.657Z,0.00
2022-08-21T02:38:13.419Z,0.00
2022-08-21T02:38:44.248Z,0.00
2022-08-21T02:39:14.776Z,0.00
2022-08-21T02:39:45.373Z,0.00
2022-08-21T02:40:16.044Z,0.00
2022-08-21T02:40:47.922Z,0.00
2022-08-21T02:41:17.634Z,0.00
2022-08-21T02:41:48.215Z,0.00
2022-08-21T02:42:18.793Z,0.00
2022-08-21T02:42:49.372Z,0.00
2022-08-21T02:43:19.951Z,0.00
2022-08-21T02:43:50.504Z,0.00
2022-08-21T02:44:21.052Z,0.00
2022-08-21T02:44:51.824Z,0.00
2022-08-21T02:45:22.390Z,0.00
2022-08-21T02:45:52.913Z,0.00
2022-08-21T02:46:23.439Z,0.00
2022-08-21T02:46:54.005Z,0.00
2022-08-21T02:47:24.638Z,0.00
2022-08-21T02:47:55.163Z,0.00
2022-08-21T02:48:25.727Z,0.00
2022-08-21T02:48:56.277Z,0.00
2022-08-21T02:49:26.818Z,0.00
2022-08-21T02:49:57.402Z,0.00
2022-08-21T02:50:27.979Z,0.00
2022-08-21T02:50:58.539Z,0.00
2022-08-21T02:51:29.072Z,0.00
2022-08-21T02:51:59.639Z,0.00
2022-08-21T02:52:30.174Z,0.00
2022-08-21T02:53:00.702Z,0.00
2022-08-21T02:53:31.273Z,0.00
2022-08-21T02:54:01.806Z,0.00
2022-08-21T02:54:32.365Z,0.00
2022-08-21T02:55:02.943Z,0.00
2022-08-21T02:55:33.467Z,0.00
2022-08-21T02:56:04.012Z,0.00
2022-08-21T02:56:34.557Z,0.00
2022-08-21T02:57:05.114Z,0.00
2022-08-21T02:57:35.681Z,0.00
2022-08-21T02:58:06.166Z,1.00
2022-08-21T02:58:36.704Z,1.00
2022-08-21T02:59:07.697Z,1.00
2022-08-21T02:59:38.741Z,0.00
2022-08-21T03:00:09.269Z,0.00
2022-08-21T03:00:39.840Z,0.00
2022-08-21T03:01:10.416Z,0.00
2022-08-21T03:01:41.056Z,0.00
2022-08-21T03:02:11.619Z,0.00
2022-08-21T03:02:42.197Z,0.00
2022-08-21T03:03:12.721Z,0.00
2022-08-21T03:03:43.305Z,0.00
2022-08-21T03:04:13.840Z,0.00
2022-08-21T03:04:46.666Z,0.00
2022-08-21T03:05:15.394Z,0.00
2022-08-21T03:05:45.929Z,0.00
2022-08-21T03:06:16.478Z,0.00
2022-08-21T03:06:47.038Z,0.00
2022-08-21T03:07:17.600Z,0.00
2022-08-21T03:07:48.168Z,0.00
2022-08-21T03:08:18.687Z,0.00
2022-08-21T03:08:49.242Z,0.00
2022-08-21T03:09:19.777Z,0.00
2022-08-21T03:09:55.429Z,0.00
2022-08-21T03:10:21.138Z,0.00
2022-08-21T03:10:51.683Z,0.00
2022-08-21T03:11:22.243Z,0.00
2022-08-21T03:11:52.775Z,0.00
2022-08-21T03:12:23.319Z,0.00
2022-08-21T03:12:53.859Z,0.00
2022-08-21T03:13:24.414Z,0.00
2022-08-21T03:13:54.999Z,0.00
2022-08-21T03:14:25.524Z,0.00
2022-08-21T03:14:56.086Z,0.00
2022-08-21T03:15:26.610Z,0.00
2022-08-21T03:15:57.171Z,0.00
2022-08-21T03:16:30.934Z,0.00
2022-08-21T03:16:58.555Z,0.00
2022-08-21T03:17:29.384Z,0.00
2022-08-21T03:17:59.668Z,0.00
2022-08-21T03:18:30.244Z,0.00
2022-08-21T03:19:00.799Z,0.00
2022-08-21T03:19:31.359Z,0.00
2022-08-21T03:20:01.907Z,0.00
2022-08-21T03:20:32.453Z,0.00
2022-08-21T03:21:02.983Z,0.00
2022-08-21T03:21:33.527Z,0.00
2022-08-21T03:22:04.088Z,0.00
2022-08-21T03:22:34.639Z,0.00
2022-08-21T03:23:12.724Z,0.00
2022-08-21T03:23:35.939Z,0.00
2022-08-21T03:24:06.497Z,0.00
2022-08-21T03:24:37.423Z,0.00
2022-08-21T03:25:08.214Z,0.00
2022-08-21T03:25:40.004Z,0.00
2022-08-21T03:26:09.535Z,0.00
2022-08-21T03:26:40.612Z,0.00
2022-08-21T03:27:11.010Z,0.00
2022-08-21T03:27:41.595Z,0.00
2022-08-21T03:28:12.879Z,0.00
2022-08-21T03:28:42.921Z,0.00
2022-08-21T03:29:13.474Z,0.00
2022-08-21T03:29:44.025Z,0.00
2022-08-21T03:30:14.599Z,0.00
2022-08-21T03:30:45.145Z,0.00
2022-08-21T03:31:15.718Z,0.00
2022-08-21T03:31:46.286Z,0.00
2022-08-21T03:32:16.834Z,0.00
2022-08-21T03:32:47.363Z,0.00
2022-08-21T03:33:17.935Z,0.00
2022-08-21T03:33:48.633Z,0.00
2022-08-21T03:34:19.178Z,0.00
2022-08-21T03:34:49.746Z,0.00
2022-08-21T03:35:20.280Z,0.00
2022-08-21T03:35:50.813Z,0.00
2022-08-21T03:36:21.370Z,0.00
2022-08-21T03:36:51.894Z,0.00
2022-08-21T03:37:22.439Z,0.00
2022-08-21T03:37:53.009Z,0.00
2022-08-21T03:38:26.630Z,0.00
2022-08-21T03:38:54.301Z,0.00
2022-08-21T03:39:24.828Z,0.00
2022-08-21T03:39:55.428Z,0.00
2022-08-21T03:40:26.016Z,0.00
2022-08-21T03:40:56.618Z,0.00
2022-08-21T03:41:27.167Z,0.00
2022-08-21T03:41:57.724Z,0.00
2022-08-21T03:42:28.259Z,0.00
2022-08-21T03:42:58.991Z,0.00
2022-08-21T03:43:31.199Z,0.00
2022-08-21T03:44:00.243Z,0.00
2022-08-21T03:44:30.766Z,0.00
2022-08-21T03:45:01.306Z,0.00
2022-08-21T03:45:31.836Z,0.00
2022-08-21T03:46:02.397Z,0.00
2022-08-21T03:46:32.971Z,0.00
2022-08-21T03:47:03.547Z,0.00
2022-08-21T03:47:34.079Z,0.00
2022-08-21T03:48:04.634Z,0.00
2022-08-21T03:48:35.214Z,0.00
2022-08-21T03:49:05.774Z,0.00
2022-08-21T03:49:36.331Z,0.00
2022-08-21T03:50:06.874Z,0.00
2022-08-21T03:50:41.161Z,0.00
2022-08-21T03:51:08.178Z,0.00
2022-08-21T03:51:38.761Z,0.00
2022-08-21T03:52:09.233Z,1.00
2022-08-21T03:52:40.307Z,0.00
2022-08-21T03:53:16.613Z,0.00
2022-08-21T03:53:41.577Z,1.00
2022-08-21T03:54:12.587Z,1.00
2022-08-21T03:54:43.593Z,1.00
2022-08-21T03:55:14.105Z,1.00
2022-08-21T03:55:45.110Z,1.00
2022-08-21T03:56:16.132Z,1.00
2022-08-21T03:56:47.135Z,2.00
2022-08-21T03:57:18.172Z,2.00
2022-08-21T03:57:48.686Z,2.00
2022-08-21T03:58:19.688Z,2.00
2022-08-21T03:58:50.695Z,2.00
2022-08-21T03:59:21.702Z,2.00
2022-08-21T03:59:52.707Z,3.00
2022-08-21T04:00:23.748Z,1.00
2022-08-21T04:00:54.278Z,3.00
2022-08-21T04:01:25.326Z,4.00
2022-08-21T04:01:55.946Z,2.00
2022-08-21T04:02:26.467Z,3.00
2022-08-21T04:02:57.664Z,3.00
2022-08-21T04:03:28.222Z,6.00
2022-08-21T04:03:58.733Z,4.00
2022-08-21T04:04:29.728Z,5.00
2022-08-21T04:05:00.729Z,6.00
2022-08-21T04:05:31.753Z,10.00
2022-08-21T04:06:02.748Z,10.00
2022-08-21T04:06:37.653Z,11.00
2022-08-21T04:07:04.201Z,13.00
2022-08-21T04:07:35.189Z,11.00
2022-08-21T04:08:06.205Z,9.00
2022-08-21T04:08:37.209Z,11.00
2022-08-21T04:09:08.222Z,15.00
2022-08-21T04:09:39.238Z,15.00
2022-08-21T04:10:10.268Z,17.00
2022-08-21T04:10:41.303Z,16.00
2022-08-21T04:11:12.351Z,18.00
2022-08-21T04:11:43.396Z,19.00
2022-08-21T04:12:13.901Z,19.00
2022-08-21T04:12:44.909Z,22.00
2022-08-21T04:13:15.945Z,22.00
2022-08-21T04:13:46.968Z,24.00
2022-08-21T04:14:17.990Z,25.00
2022-08-21T04:14:49.012Z,26.00
2022-08-21T04:15:20.002Z,26.00
2022-08-21T04:15:51.000Z,28.00
2022-08-21T04:16:21.520Z,30.00
2022-08-21T04:16:52.533Z,29.00
2022-08-21T04:17:23.549Z,29.00
2022-08-21T04:17:54.573Z,33.00
2022-08-21T04:18:25.577Z,35.00
2022-08-21T04:18:56.579Z,36.00
2022-08-21T04:19:27.612Z,37.00
2022-08-21T04:19:58.626Z,38.00
2022-08-21T04:20:29.656Z,41.00
2022-08-21T04:21:00.668Z,42.00
2022-08-21T04:21:31.259Z,43.00
2022-08-21T04:22:02.284Z,45.00
2022-08-21T04:22:33.104Z,46.00
2022-08-21T04:23:04.104Z,49.00
2022-08-21T04:23:35.120Z,50.00
2022-08-21T04:24:06.136Z,52.00
2022-08-21T04:24:37.143Z,51.00
2022-08-21T04:25:08.231Z,54.00
2022-08-21T04:25:39.956Z,55.00
2022-08-21T04:26:09.383Z,57.00
2022-08-21T04:26:40.382Z,60.00
2022-08-21T04:27:11.413Z,61.00
2022-08-21T04:27:42.421Z,63.00
2022-08-21T04:28:13.447Z,66.00
2022-08-21T04:28:44.145Z,66.00
2022-08-21T04:29:14.972Z,66.00
2022-08-21T04:29:45.975Z,70.00
2022-08-21T04:30:16.996Z,72.00
2022-08-21T04:30:48.033Z,73.00
2022-08-21T04:31:18.547Z,75.00
2022-08-21T04:31:49.548Z,77.00
2022-08-21T04:32:20.541Z,80.00
2022-08-21T04:32:51.702Z,82.00
2022-08-21T04:33:22.283Z,83.00
2022-08-21T04:33:53.301Z,85.00
2022-08-21T04:34:24.314Z,87.00
2022-08-21T04:34:55.320Z,91.00
2022-08-21T04:35:26.308Z,92.00
2022-08-21T04:35:57.343Z,93.00
2022-08-21T04:36:28.347Z,97.00
2022-08-21T04:36:59.378Z,99.00
2022-08-21T04:37:30.429Z,101.00
2022-08-21T04:38:00.963Z,105.00
2022-08-21T04:38:37.500Z,107.00
2022-08-21T04:39:03.490Z,110.00
2022-08-21T04:39:33.553Z,112.00
2022-08-21T04:40:04.645Z,114.00
2022-08-21T04:40:35.155Z,118.00
2022-08-21T04:41:06.184Z,121.00
2022-08-21T04:41:37.190Z,125.00
2022-08-21T04:42:08.208Z,129.00
2022-08-21T04:42:39.207Z,130.00
2022-08-21T04:43:10.234Z,134.00
2022-08-21T04:43:41.250Z,138.00
2022-08-21T04:44:11.763Z,142.00
2022-08-21T04:44:42.769Z,144.00
2022-08-21T04:45:13.770Z,148.00
2022-08-21T04:45:44.794Z,149.00
2022-08-21T04:46:15.826Z,153.00
2022-08-21T04:46:46.355Z,157.00
2022-08-21T04:47:16.859Z,160.00
2022-08-21T04:47:52.700Z,164.00
2022-08-21T04:48:18.604Z,166.00
2022-08-21T04:48:49.627Z,172.00
2022-08-21T04:49:20.621Z,177.00
2022-08-21T04:49:51.633Z,181.00
2022-08-21T04:50:22.159Z,191.00
2022-08-21T04:50:52.690Z,197.00
2022-08-21T04:51:23.687Z,204.00
2022-08-21T04:51:54.709Z,213.00
2022-08-21T04:52:25.712Z,222.00
2022-08-21T04:52:56.725Z,231.00
2022-08-21T04:53:27.752Z,240.00
2022-08-21T04:53:58.274Z,246.00
2022-08-21T04:54:28.797Z,252.00
2022-08-21T04:54:59.791Z,258.00
2022-08-21T04:55:30.810Z,263.00
2022-08-21T04:56:01.807Z,267.00
2022-08-21T04:56:32.854Z,273.00
2022-08-21T04:57:03.361Z,277.00
2022-08-21T04:57:39.669Z,280.00
2022-08-21T04:58:04.605Z,288.00
2022-08-21T04:58:35.657Z,291.00
2022-08-21T04:59:06.644Z,297.00
2022-08-21T04:59:37.654Z,299.00
2022-08-21T05:00:13.648Z,303.00
2022-08-21T05:00:39.377Z,307.00
2022-08-21T05:01:10.485Z,311.00
2022-08-21T05:01:41.046Z,316.00
2022-08-21T05:02:11.550Z,320.00
2022-08-21T05:02:42.558Z,323.00
2022-08-21T05:03:13.604Z,327.00
2022-08-21T05:03:44.151Z,332.00
2022-08-21T05:04:14.929Z,335.00
2022-08-21T05:04:45.961Z,334.00
2022-08-21T05:05:17.038Z,342.00
2022-08-21T05:05:47.573Z,345.00
2022-08-21T05:06:18.618Z,350.00
2022-08-21T05:06:49.106Z,354.00
2022-08-21T05:07:42.011Z,356.00
2022-08-21T05:07:50.823Z,357.00
2022-08-21T05:08:21.863Z,366.00
2022-08-21T05:08:52.875Z,367.00
2022-08-21T05:09:23.597Z,367.00
2022-08-21T05:09:54.115Z,372.00
2022-08-21T05:10:25.114Z,377.00
2022-08-21T05:11:00.303Z,379.00
2022-08-21T05:11:26.881Z,382.00
2022-08-21T05:11:57.923Z,384.00
2022-08-21T05:12:28.458Z,384.00
2022-08-21T05:12:59.137Z,392.00
2022-08-21T05:13:29.701Z,391.00
2022-08-21T05:14:00.245Z,397.00
2022-08-21T05:14:30.739Z,400.00
2022-08-21T05:15:01.762Z,400.00
2022-08-21T05:15:32.776Z,410.00
2022-08-21T05:16:03.768Z,406.00
2022-08-21T05:16:37.226Z,405.00
2022-08-21T05:17:05.821Z,410.00
2022-08-21T05:17:36.837Z,412.00
2022-08-21T05:18:07.873Z,417.00
2022-08-21T05:18:38.894Z,421.00
2022-08-21T05:19:09.434Z,424.00
2022-08-21T05:19:40.426Z,428.00
2022-08-21T05:20:11.455Z,434.00
2022-08-21T05:20:41.969Z,433.00
2022-08-21T05:21:13.012Z,434.00
2022-08-21T05:21:43.535Z,434.00
2022-08-21T05:22:14.556Z,439.00
2022-08-21T05:22:45.565Z,443.00
2022-08-21T05:23:16.592Z,444.00
2022-08-21T05:23:47.614Z,447.00
2022-08-21T05:24:18.105Z,451.00
2022-08-21T05:24:49.119Z,450.00
2022-08-21T05:25:22.278Z,454.00
2022-08-21T05:25:51.111Z,458.00
2022-08-21T05:26:21.628Z,457.00
2022-08-21T05:26:52.323Z,464.00
2022-08-21T05:27:23.316Z,465.00
2022-08-21T05:27:54.232Z,468.00
2022-08-21T05:28:24.939Z,465.00
2022-08-21T05:28:55.777Z,474.00
2022-08-21T05:29:26.798Z,475.00
2022-08-21T05:29:57.840Z,481.00
2022-08-21T05:30:28.840Z,479.00
2022-08-21T05:30:59.861Z,478.00
2022-08-21T05:31:30.907Z,482.00
2022-08-21T05:32:01.917Z,480.00
2022-08-21T05:32:32.954Z,485.00
2022-08-21T05:33:03.488Z,488.00
2022-08-21T05:33:34.509Z,493.00
2022-08-21T05:34:05.444Z,493.00
2022-08-21T05:34:35.936Z,496.00
2022-08-21T05:35:06.920Z,499.00
2022-08-21T05:35:37.945Z,495.00
2022-08-21T05:36:08.972Z,501.00
2022-08-21T05:36:39.967Z,505.00
2022-08-21T05:37:10.974Z,508.00
2022-08-21T05:37:41.996Z,509.00
2022-08-21T05:38:17.688Z,511.00
2022-08-21T05:38:43.787Z,518.00
2022-08-21T05:39:14.804Z,516.00
2022-08-21T05:40:20.449Z,520.00
2022-08-21T05:40:21.066Z,521.00
2022-08-21T05:40:47.381Z,526.00
2022-08-21T05:41:17.889Z,521.00
2022-08-21T05:41:48.476Z,526.00
2022-08-21T05:42:18.972Z,527.00
2022-08-21T05:42:54.120Z,526.00
2022-08-21T05:43:20.210Z,529.00
2022-08-21T05:43:51.229Z,537.00
2022-08-21T05:44:22.457Z,537.00
2022-08-21T05:44:52.990Z,539.00
2022-08-21T05:45:41.382Z,546.00
2022-08-21T05:45:54.662Z,539.00
2022-08-21T05:46:25.204Z,538.00
2022-08-21T05:46:56.220Z,543.00
2022-08-21T05:47:27.235Z,544.00
2022-08-21T05:47:58.226Z,545.00
2022-08-21T05:48:29.259Z,548.00
2022-08-21T05:49:00.266Z,552.00
2022-08-21T05:49:31.278Z,555.00
2022-08-21T05:50:01.816Z,557.00
2022-08-21T05:50:33.766Z,560.00
2022-08-21T05:51:03.314Z,559.00
2022-08-21T05:51:33.834Z,562.00
2022-08-21T05:52:04.836Z,565.00
2022-08-21T05:52:35.856Z,565.00
2022-08-21T05:53:07.311Z,566.00
2022-08-21T05:53:37.222Z,567.00
2022-08-21T05:54:08.253Z,569.00
2022-08-21T05:54:38.754Z,572.00
2022-08-21T05:55:09.792Z,568.00
2022-08-21T05:55:45.228Z,573.00
2022-08-21T05:56:11.551Z,572.00
2022-08-21T05:56:42.565Z,573.00
2022-08-21T05:57:13.566Z,577.00
2022-08-21T05:57:44.099Z,575.00
2022-08-21T05:58:15.153Z,577.00
2022-08-21T05:58:46.165Z,576.00
2022-08-21T05:59:17.181Z,575.00
2022-08-21T05:59:48.169Z,576.00
2022-08-21T06:00:19.205Z,576.00
2022-08-21T06:00:50.219Z,582.00
2022-08-21T06:01:20.803Z,578.00
2022-08-21T06:01:51.365Z,581.00
2022-08-21T06:02:21.871Z,580.00
2022-08-21T06:02:52.893Z,584.00
2022-08-21T06:03:23.901Z,585.00
2022-08-21T06:03:57.236Z,583.00
2022-08-21T06:04:25.540Z,585.00
2022-08-21T06:04:56.059Z,583.00
2022-08-21T06:05:37.294Z,589.00
2022-08-21T06:05:57.826Z,588.00
2022-08-21T06:06:28.843Z,586.00
2022-08-21T06:06:59.877Z,589.00
2022-08-21T06:07:30.894Z,585.00
2022-08-21T06:08:01.910Z,590.00
2022-08-21T06:08:32.937Z,588.00
2022-08-21T06:09:03.958Z,591.00
2022-08-21T06:09:34.617Z,592.00
2022-08-21T06:10:05.649Z,600.00
2022-08-21T06:10:36.670Z,596.00
2022-08-21T06:11:07.246Z,594.00
2022-08-21T06:11:38.251Z,598.00
2022-08-21T06:12:08.809Z,599.00
2022-08-21T06:12:39.302Z,600.00
2022-08-21T06:13:09.869Z,598.00
2022-08-21T06:13:40.926Z,595.00
2022-08-21T06:14:11.426Z,602.00
2022-08-21T06:14:41.971Z,598.00
2022-08-21T06:15:13.025Z,600.00
2022-08-21T06:15:43.529Z,602.00
2022-08-21T06:16:15.930Z,598.00
2022-08-21T06:16:45.179Z,602.00
2022-08-21T06:17:16.184Z,608.00
2022-08-21T06:17:47.228Z,604.00
2022-08-21T06:18:17.734Z,605.00
2022-08-21T06:18:48.772Z,605.00
2022-08-21T06:19:19.287Z,604.00
2022-08-21T06:19:50.329Z,603.00
2022-08-21T06:20:20.834Z,608.00
2022-08-21T06:20:51.872Z,609.00
2022-08-21T06:21:22.895Z,608.00
2022-08-21T06:21:53.917Z,603.00
2022-08-21T06:22:24.453Z,608.00
2022-08-21T06:22:55.586Z,608.00
2022-08-21T06:23:33.160Z,604.00
2022-08-21T06:23:56.810Z,609.00
2022-08-21T06:24:27.867Z,617.00
2022-08-21T06:24:58.371Z,614.00
2022-08-21T06:25:29.400Z,614.00
2022-08-21T06:26:00.445Z,614.00
2022-08-21T06:26:30.982Z,617.00
2022-08-21T06:27:01.481Z,616.00
2022-08-21T06:27:32.594Z,618.00
2022-08-21T06:28:03.089Z,616.00
2022-08-21T06:28:33.626Z,615.00
2022-08-21T06:29:04.633Z,611.00
2022-08-21T06:29:44.582Z,609.00
2022-08-21T06:30:06.355Z,613.00
2022-08-21T06:30:36.881Z,612.00
2022-08-21T06:31:07.908Z,620.00
2022-08-21T06:31:38.917Z,619.00
2022-08-21T06:32:09.968Z,621.00
2022-08-21T06:32:40.707Z,617.00
2022-08-21T06:33:11.212Z,618.00
2022-08-21T06:33:42.250Z,623.00
2022-08-21T06:34:12.776Z,623.00
2022-08-21T06:34:43.802Z,615.00
2022-08-21T06:35:14.858Z,613.00
2022-08-21T06:35:45.359Z,618.00
2022-08-21T06:36:15.881Z,620.00
2022-08-21T06:36:46.880Z,621.00
2022-08-21T06:37:17.921Z,622.00
2022-08-21T06:37:48.948Z,622.00
2022-08-21T06:38:19.968Z,621.00
2022-08-21T06:38:50.860Z,624.00
2022-08-21T06:39:25.597Z,624.00